KSLB/SLB METAR and TAF weather

Enter ICAO airport designator
Station Type Date Time Source
KSLB METAR 2022/01/26 21:15 UTC NOAA

KSLB 262115Z AUTO 21021G27KT 10SM CLR M01/M08 A2997 RMK AO2


Station Type Date Time Source
KSLB Decoded METAR 2022/01/26 21:15 UTC NOAA

Storm Lake, IA, United States (KSLB) 42-36N 095-14W
Jan 26, 2022 - 04:15 PM EST / 2022.01.26 2115 UTC
Wind: from the SSW (210 degrees) at 24 MPH (21 KT) gusting to 31 MPH (27 KT):0
Visibility: 10 mile(s):0
Sky conditions: clear
Temperature: 30 F (-1 C)
Windchill: 15 F (-9 C):1
Dew Point: 17 F (-8 C)
Relative Humidity: 58%
Pressure (altimeter): 29.97 in. Hg (1014 hPa)
ob: KSLB 262115Z AUTO 21021G27KT 10SM CLR M01/M08 A2997 RMK AO2
cycle: 21

Station Type Date Time Source
KSLB TAF UTC NOAA

Error!

Example: see airport list